sensor_id;sensor_type;location;lat;lon;timestamp;temperature;humidity
1205;DHT22;592;48.764;9.174;2023-03-26T00:01:09;8.30;99.90
1205;DHT22;592;48.764;9.174;2023-03-26T00:03:38;8.40;99.90
1205;DHT22;592;48.764;9.174;2023-03-26T00:06:07;8.30;99.90
1205;DHT22;592;48.764;9.174;2023-03-26T00:08:35;8.30;99.90
1205;DHT22;592;48.764;9.174;2023-03-26T00:11:03;8.30;99.90
1205;DHT22;592;48.764;9.174;2023-03-26T00:13:31;8.30;99.90
1205;DHT22;592;48.764;9.174;2023-03-26T00:15:58;8.30;99.90
1205;DHT22;592;48.764;9.174;2023-03-26T00:18:27;8.20;99.90
1205;DHT22;592;48.764;9.174;2023-03-26T00:20:56;8.20;99.90
1205;DHT22;592;48.764;9.174;2023-03-26T00:23:22;8.20;99.90
1205;DHT22;592;48.764;9.174;2023-03-26T00:25:49;8.30;99.90
1205;DHT22;592;48.764;9.174;2023-03-26T00:28:16;8.40;99.90
1205;DHT22;592;48.764;9.174;2023-03-26T00:30:46;8.20;99.90
1205;DHT22;592;48.764;9.174;2023-03-26T00:33:12;8.10;99.90
1205;DHT22;592;48.764;9.174;2023-03-26T00:35:43;8.10;99.90
1205;DHT22;592;48.764;9.174;2023-03-26T00:38:12;8.10;99.90
1205;DHT22;592;48.764;9.174;2023-03-26T00:40:38;8.10;99.90
1205;DHT22;592;48.764;9.174;2023-03-26T00:43:09;8.10;99.90
1205;DHT22;592;48.764;9.174;2023-03-26T00:45:43;8.10;99.90
1205;DHT22;592;48.764;9.174;2023-03-26T00:48:10;8.10;99.90
1205;DHT22;592;48.764;9.174;2023-03-26T00:50:37;8.10;99.90
1205;DHT22;592;48.764;9.174;2023-03-26T00:53:05;8.00;99.90
1205;DHT22;592;48.764;9.174;2023-03-26T00:55:33;8.10;99.90
1205;DHT22;592;48.764;9.174;2023-03-26T00:58:00;8.10;99.90
1205;DHT22;592;48.764;9.174;2023-03-26T01:00:29;8.10;99.90
1205;DHT22;592;48.764;9.174;2023-03-26T01:02:56;8.10;99.90
1205;DHT22;592;48.764;9.174;2023-03-26T01:05:43;8.10;99.90
1205;DHT22;592;48.764;9.174;2023-03-26T01:08:17;8.10;99.90
1205;DHT22;592;48.764;9.174;2023-03-26T01:10:45;8.10;99.90
1205;DHT22;592;48.764;9.174;2023-03-26T01:13:16;8.00;99.90
1205;DHT22;592;48.764;9.174;2023-03-26T01:15:43;7.70;99.90
1205;DHT22;592;48.764;9.174;2023-03-26T01:18:17;8.00;99.90
1205;DHT22;592;48.764;9.174;2023-03-26T01:20:45;8.00;99.90
1205;DHT22;592;48.764;9.174;2023-03-26T01:23:20;8.00;99.90
1205;DHT22;592;48.764;9.174;2023-03-26T01:25:55;8.00;99.90
1205;DHT22;592;48.764;9.174;2023-03-26T01:28:24;8.00;99.90
1205;DHT22;592;48.764;9.174;2023-03-26T01:30:57;8.00;99.90
1205;DHT22;592;48.764;9.174;2023-03-26T01:33:34;8.00;99.90
1205;DHT22;592;48.764;9.174;2023-03-26T01:36:06;8.00;99.90
1205;DHT22;592;48.764;9.174;2023-03-26T01:38:39;8.00;99.90
1205;DHT22;592;48.764;9.174;2023-03-26T01:41:18;8.00;99.90
1205;DHT22;592;48.764;9.174;2023-03-26T01:43:50;8.00;99.90
1205;DHT22;592;48.764;9.174;2023-03-26T01:46:18;8.00;99.90
1205;DHT22;592;48.764;9.174;2023-03-26T01:48:46;8.00;99.90
1205;DHT22;592;48.764;9.174;2023-03-26T01:51:24;8.00;99.90
1205;DHT22;592;48.764;9.174;2023-03-26T01:53:52;8.00;99.90
1205;DHT22;592;48.764;9.174;2023-03-26T01:56:24;8.00;99.90
1205;DHT22;592;48.764;9.174;2023-03-26T01:59:08;8.00;99.90
1205;DHT22;592;48.764;9.174;2023-03-26T02:01:42;8.40;99.90
1205;DHT22;592;48.764;9.174;2023-03-26T02:04:17;8.30;99.90
1205;DHT22;592;48.764;9.174;2023-03-26T02:06:51;8.00;99.90
1205;DHT22;592;48.764;9.174;2023-03-26T02:09:21;8.10;99.90
1205;DHT22;592;48.764;9.174;2023-03-26T02:11:51;8.00;99.90
1205;DHT22;592;48.764;9.174;2023-03-26T02:14:19;8.10;99.90
1205;DHT22;592;48.764;9.174;2023-03-26T02:16:46;8.00;99.90
1205;DHT22;592;48.764;9.174;2023-03-26T02:19:13;8.10;99.90
1205;DHT22;592;48.764;9.174;2023-03-26T02:21:46;8.00;99.90
1205;DHT22;592;48.764;9.174;2023-03-26T02:24:13;8.20;99.90
1205;DHT22;592;48.764;9.174;2023-03-26T02:26:40;8.00;99.90
1205;DHT22;592;48.764;9.174;2023-03-26T02:29:08;7.90;99.90
1205;DHT22;592;48.764;9.174;2023-03-26T02:31:35;7.90;99.90
1205;DHT22;592;48.764;9.174;2023-03-26T02:34:02;7.90;99.90
1205;DHT22;592;48.764;9.174;2023-03-26T02:36:29;7.90;99.90
1205;DHT22;592;48.764;9.174;2023-03-26T02:38:56;7.90;99.90
1205;DHT22;592;48.764;9.174;2023-03-26T02:41:24;8.00;99.90
1205;DHT22;592;48.764;9.174;2023-03-26T02:43:51;8.00;99.90
1205;DHT22;592;48.764;9.174;2023-03-26T02:46:19;7.90;99.90
1205;DHT22;592;48.764;9.174;2023-03-26T02:48:46;8.30;99.90
1205;DHT22;592;48.764;9.174;2023-03-26T02:51:13;7.90;99.90
1205;DHT22;592;48.764;9.174;2023-03-26T02:53:42;7.80;99.90
1205;DHT22;592;48.764;9.174;2023-03-26T02:56:09;8.10;99.90
1205;DHT22;592;48.764;9.174;2023-03-26T02:58:37;7.80;99.90
1205;DHT22;592;48.764;9.174;2023-03-26T03:01:03;7.90;99.90
1205;DHT22;592;48.764;9.174;2023-03-26T03:03:32;7.90;99.90
1205;DHT22;592;48.764;9.174;2023-03-26T03:06:00;7.90;99.90
1205;DHT22;592;48.764;9.174;2023-03-26T03:08:27;8.00;99.90
1205;DHT22;592;48.764;9.174;2023-03-26T03:10:55;7.90;99.90
1205;DHT22;592;48.764;9.174;2023-03-26T03:13:22;7.90;99.90
1205;DHT22;592;48.764;9.174;2023-03-26T03:15:49;7.90;99.90
1205;DHT22;592;48.764;9.174;2023-03-26T03:18:15;7.90;99.90
1205;DHT22;592;48.764;9.174;2023-03-26T03:20:43;8.00;99.90
1205;DHT22;592;48.764;9.174;2023-03-26T03:23:10;8.00;99.90
1205;DHT22;592;48.764;9.174;2023-03-26T03:25:37;8.00;99.90
1205;DHT22;592;48.764;9.174;2023-03-26T03:28:06;8.00;99.90
1205;DHT22;592;48.764;9.174;2023-03-26T03:30:33;8.00;99.90
1205;DHT22;592;48.764;9.174;2023-03-26T03:33:00;8.10;99.90
1205;DHT22;592;48.764;9.174;2023-03-26T03:35:27;8.20;99.90
1205;DHT22;592;48.764;9.174;2023-03-26T03:37:55;8.10;99.90
1205;DHT22;592;48.764;9.174;2023-03-26T03:40:22;8.10;99.90
1205;DHT22;592;48.764;9.174;2023-03-26T03:42:49;8.30;99.90
1205;DHT22;592;48.764;9.174;2023-03-26T03:45:17;8.20;99.90
1205;DHT22;592;48.764;9.174;2023-03-26T03:47:43;8.30;99.90
1205;DHT22;592;48.764;9.174;2023-03-26T03:50:10;8.30;99.90
1205;DHT22;592;48.764;9.174;2023-03-26T03:52:37;8.30;99.90
1205;DHT22;592;48.764;9.174;2023-03-26T03:55:06;8.40;99.90
1205;DHT22;592;48.764;9.174;2023-03-26T03:57:35;8.30;99.90
1205;DHT22;592;48.764;9.174;2023-03-26T04:00:02;8.30;99.90
1205;DHT22;592;48.764;9.174;2023-03-26T04:02:31;8.30;99.90
1205;DHT22;592;48.764;9.174;2023-03-26T04:04:59;8.30;99.90
1205;DHT22;592;48.764;9.174;2023-03-26T04:07:27;8.40;99.90
1205;DHT22;592;48.764;9.174;2023-03-26T04:09:55;8.40;99.90
1205;DHT22;592;48.764;9.174;2023-03-26T04:12:25;8.40;99.90
1205;DHT22;592;48.764;9.174;2023-03-26T04:14:53;8.40;99.90
1205;DHT22;592;48.764;9.174;2023-03-26T04:17:20;8.40;99.90
1205;DHT22;592;48.764;9.174;2023-03-26T04:19:48;8.40;99.90
1205;DHT22;592;48.764;9.174;2023-03-26T04:22:17;8.40;99.90
1205;DHT22;592;48.764;9.174;2023-03-26T04:24:44;8.40;99.90
1205;DHT22;592;48.764;9.174;2023-03-26T04:27:15;8.40;99.90
1205;DHT22;592;48.764;9.174;2023-03-26T04:29:45;8.40;99.90
1205;DHT22;592;48.764;9.174;2023-03-26T04:32:18;8.40;99.90
1205;DHT22;592;48.764;9.174;2023-03-26T04:34:45;8.50;99.90
1205;DHT22;592;48.764;9.174;2023-03-26T04:37:19;8.50;99.90
1205;DHT22;592;48.764;9.174;2023-03-26T04:39:48;8.50;99.90
1205;DHT22;592;48.764;9.174;2023-03-26T04:42:15;8.50;99.90
1205;DHT22;592;48.764;9.174;2023-03-26T04:44:45;8.50;99.90
1205;DHT22;592;48.764;9.174;2023-03-26T04:47:15;8.50;99.90
1205;DHT22;592;48.764;9.174;2023-03-26T04:49:42;8.50;99.90
1205;DHT22;592;48.764;9.174;2023-03-26T04:52:09;8.50;99.90
1205;DHT22;592;48.764;9.174;2023-03-26T04:54:36;8.50;99.90
1205;DHT22;592;48.764;9.174;2023-03-26T04:57:06;8.50;99.90
1205;DHT22;592;48.764;9.174;2023-03-26T04:59:34;8.80;99.90
1205;DHT22;592;48.764;9.174;2023-03-26T05:02:04;8.60;99.90
1205;DHT22;592;48.764;9.174;2023-03-26T05:04:32;8.60;99.90
1205;DHT22;592;48.764;9.174;2023-03-26T05:07:01;8.60;99.90
1205;DHT22;592;48.764;9.174;2023-03-26T05:09:28;8.60;99.90
1205;DHT22;592;48.764;9.174;2023-03-26T05:11:55;8.60;99.90
1205;DHT22;592;48.764;9.174;2023-03-26T05:14:23;8.60;99.90
1205;DHT22;592;48.764;9.174;2023-03-26T05:16:50;8.60;99.90
1205;DHT22;592;48.764;9.174;2023-03-26T05:19:20;8.90;99.90
1205;DHT22;592;48.764;9.174;2023-03-26T05:21:46;8.60;99.90
1205;DHT22;592;48.764;9.174;2023-03-26T05:24:13;8.80;99.90
1205;DHT22;592;48.764;9.174;2023-03-26T05:26:40;8.70;99.90
1205;DHT22;592;48.764;9.174;2023-03-26T05:29:07;9.00;99.90
1205;DHT22;592;48.764;9.174;2023-03-26T05:31:33;8.70;99.90
1205;DHT22;592;48.764;9.174;2023-03-26T05:34:00;8.70;99.90
1205;DHT22;592;48.764;9.174;2023-03-26T05:36:29;8.70;99.90
1205;DHT22;592;48.764;9.174;2023-03-26T05:38:55;8.60;99.90
1205;DHT22;592;48.764;9.174;2023-03-26T05:41:22;8.60;99.90
1205;DHT22;592;48.764;9.174;2023-03-26T05:43:49;8.60;99.90
1205;DHT22;592;48.764;9.174;2023-03-26T05:46:18;8.60;99.90
1205;DHT22;592;48.764;9.174;2023-03-26T05:48:47;8.60;99.90
1205;DHT22;592;48.764;9.174;2023-03-26T05:51:14;8.60;99.90
1205;DHT22;592;48.764;9.174;2023-03-26T05:53:42;8.60;99.90
1205;DHT22;592;48.764;9.174;2023-03-26T05:56:09;8.60;99.90
1205;DHT22;592;48.764;9.174;2023-03-26T05:58:36;8.60;99.90
1205;DHT22;592;48.764;9.174;2023-03-26T06:01:04;8.60;99.90
1205;DHT22;592;48.764;9.174;2023-03-26T06:03:34;8.60;99.90
1205;DHT22;592;48.764;9.174;2023-03-26T06:06:01;8.60;99.90
1205;DHT22;592;48.764;9.174;2023-03-26T06:08:28;8.60;99.90
1205;DHT22;592;48.764;9.174;2023-03-26T06:11:00;8.80;99.90
1205;DHT22;592;48.764;9.174;2023-03-26T06:13:27;8.60;99.90
1205;DHT22;592;48.764;9.174;2023-03-26T06:15:55;8.60;99.90
1205;DHT22;592;48.764;9.174;2023-03-26T06:18:22;8.60;99.90
1205;DHT22;592;48.764;9.174;2023-03-26T06:20:49;8.60;99.90
1205;DHT22;592;48.764;9.174;2023-03-26T06:23:16;8.50;99.90
1205;DHT22;592;48.764;9.174;2023-03-26T06:25:43;8.60;99.90
1205;DHT22;592;48.764;9.174;2023-03-26T06:28:12;8.60;99.90
1205;DHT22;592;48.764;9.174;2023-03-26T06:30:39;8.70;99.90
1205;DHT22;592;48.764;9.174;2023-03-26T06:33:07;8.70;99.90
1205;DHT22;592;48.764;9.174;2023-03-26T06:35:34;8.60;99.90
1205;DHT22;592;48.764;9.174;2023-03-26T06:38:01;8.70;99.90
1205;DHT22;592;48.764;9.174;2023-03-26T06:40:28;8.90;99.90
1205;DHT22;592;48.764;9.174;2023-03-26T06:42:54;8.70;99.90
1205;DHT22;592;48.764;9.174;2023-03-26T06:45:23;8.70;99.90
1205;DHT22;592;48.764;9.174;2023-03-26T06:47:49;8.60;99.90
1205;DHT22;592;48.764;9.174;2023-03-26T06:50:16;8.70;99.90
1205;DHT22;592;48.764;9.174;2023-03-26T06:52:43;8.60;99.90
1205;DHT22;592;48.764;9.174;2023-03-26T06:55:10;8.70;99.90
1205;DHT22;592;48.764;9.174;2023-03-26T06:57:37;8.70;99.90
1205;DHT22;592;48.764;9.174;2023-03-26T07:00:05;8.60;99.90
1205;DHT22;592;48.764;9.174;2023-03-26T07:02:34;8.70;99.90
1205;DHT22;592;48.764;9.174;2023-03-26T07:05:01;9.20;99.90
1205;DHT22;592;48.764;9.174;2023-03-26T07:07:28;8.70;99.90
1205;DHT22;592;48.764;9.174;2023-03-26T07:09:55;8.70;99.90
1205;DHT22;592;48.764;9.174;2023-03-26T07:12:22;8.70;99.90
1205;DHT22;592;48.764;9.174;2023-03-26T07:14:48;8.70;99.90
1205;DHT22;592;48.764;9.174;2023-03-26T07:17:15;8.80;99.90
1205;DHT22;592;48.764;9.174;2023-03-26T07:19:43;8.80;99.90
1205;DHT22;592;48.764;9.174;2023-03-26T07:22:14;8.70;99.90
1205;DHT22;592;48.764;9.174;2023-03-26T07:24:44;8.80;99.90
1205;DHT22;592;48.764;9.174;2023-03-26T07:27:32;8.80;99.90
1205;DHT22;592;48.764;9.174;2023-03-26T07:32:48;8.60;99.90
1205;DHT22;592;48.764;9.174;2023-03-26T07:35:20;8.60;99.90
1205;DHT22;592;48.764;9.174;2023-03-26T07:37:59;8.70;99.90
1205;DHT22;592;48.764;9.174;2023-03-26T07:40:39;9.00;99.90
1205;DHT22;592;48.764;9.174;2023-03-26T07:43:15;8.60;99.90
1205;DHT22;592;48.764;9.174;2023-03-26T07:45:46;8.70;99.90
1205;DHT22;592;48.764;9.174;2023-03-26T07:48:16;8.60;99.90
1205;DHT22;592;48.764;9.174;2023-03-26T07:50:46;8.60;99.90
1205;DHT22;592;48.764;9.174;2023-03-26T07:53:14;8.60;99.90
1205;DHT22;592;48.764;9.174;2023-03-26T07:55:48;8.60;99.90
1205;DHT22;592;48.764;9.174;2023-03-26T07:58:25;8.70;99.90
1205;DHT22;592;48.764;9.174;2023-03-26T08:00:59;8.70;99.90
1205;DHT22;592;48.764;9.174;2023-03-26T08:03:50;8.60;99.90
1205;DHT22;592;48.764;9.174;2023-03-26T08:06:27;8.50;99.90
1205;DHT22;592;48.764;9.174;2023-03-26T08:08:59;8.50;99.90
1205;DHT22;592;48.764;9.174;2023-03-26T08:11:36;8.60;99.90
1205;DHT22;592;48.764;9.174;2023-03-26T08:14:15;8.60;99.90
1205;DHT22;592;48.764;9.174;2023-03-26T08:16:47;8.50;99.90
1205;DHT22;592;48.764;9.174;2023-03-26T08:19:31;8.50;99.90
1205;DHT22;592;48.764;9.174;2023-03-26T08:22:05;8.50;99.90
1205;DHT22;592;48.764;9.174;2023-03-26T08:24:39;8.50;99.90
1205;DHT22;592;48.764;9.174;2023-03-26T08:27:13;8.60;99.90
1205;DHT22;592;48.764;9.174;2023-03-26T08:29:47;8.40;99.90
1205;DHT22;592;48.764;9.174;2023-03-26T08:32:19;8.60;99.90
1205;DHT22;592;48.764;9.174;2023-03-26T08:34:46;8.60;99.90
1205;DHT22;592;48.764;9.174;2023-03-26T08:37:15;8.40;99.90
1205;DHT22;592;48.764;9.174;2023-03-26T08:39:42;8.40;99.90
1205;DHT22;592;48.764;9.174;2023-03-26T08:45:49;8.40;99.90
1205;DHT22;592;48.764;9.174;2023-03-26T08:48:45;8.60;99.90
1205;DHT22;592;48.764;9.174;2023-03-26T08:51:34;8.40;99.90
1205;DHT22;592;48.764;9.174;2023-03-26T08:54:31;8.60;99.90
1205;DHT22;592;48.764;9.174;2023-03-26T09:00:31;8.90;99.90
1205;DHT22;592;48.764;9.174;2023-03-26T09:03:22;8.90;99.90
1205;DHT22;592;48.764;9.174;2023-03-26T09:06:16;9.10;99.90
1205;DHT22;592;48.764;9.174;2023-03-26T09:09:08;9.30;99.90
1205;DHT22;592;48.764;9.174;2023-03-26T09:15:09;9.40;99.90
1205;DHT22;592;48.764;9.174;2023-03-26T09:18:20;10.20;99.90
1205;DHT22;592;48.764;9.174;2023-03-26T09:21:11;9.80;99.90
1205;DHT22;592;48.764;9.174;2023-03-26T09:26:59;9.60;99.90
1205;DHT22;592;48.764;9.174;2023-03-26T09:35:50;9.70;99.90
1205;DHT22;592;48.764;9.174;2023-03-26T09:38:43;10.00;99.90
1205;DHT22;592;48.764;9.174;2023-03-26T09:41:14;10.00;99.90
1205;DHT22;592;48.764;9.174;2023-03-26T09:46:48;10.50;99.90
1205;DHT22;592;48.764;9.174;2023-03-26T09:49:44;10.70;99.90
1205;DHT22;592;48.764;9.174;2023-03-26T09:52:25;10.90;99.90
1205;DHT22;592;48.764;9.174;2023-03-26T09:55:20;10.90;99.90
1205;DHT22;592;48.764;9.174;2023-03-26T09:58:21;10.80;99.90
1205;DHT22;592;48.764;9.174;2023-03-26T10:00:57;10.90;99.90
1205;DHT22;592;48.764;9.174;2023-03-26T10:03:39;11.10;99.90
1205;DHT22;592;48.764;9.174;2023-03-26T10:06:42;11.20;99.90
1205;DHT22;592;48.764;9.174;2023-03-26T10:09:21;11.30;99.90
1205;DHT22;592;48.764;9.174;2023-03-26T10:12:11;11.50;99.90
1205;DHT22;592;48.764;9.174;2023-03-26T10:14:42;11.20;99.90
1205;DHT22;592;48.764;9.174;2023-03-26T10:17:25;11.20;99.90
1205;DHT22;592;48.764;9.174;2023-03-26T10:20:05;11.30;99.90
1205;DHT22;592;48.764;9.174;2023-03-26T10:22:47;11.20;99.90
1205;DHT22;592;48.764;9.174;2023-03-26T10:25:48;11.40;99.90
1205;DHT22;592;48.764;9.174;2023-03-26T10:28:33;11.40;99.90
1205;DHT22;592;48.764;9.174;2023-03-26T10:31:18;11.50;99.90
1205;DHT22;592;48.764;9.174;2023-03-26T10:34:02;11.40;99.90
1205;DHT22;592;48.764;9.174;2023-03-26T10:36:32;11.30;99.90
1205;DHT22;592;48.764;9.174;2023-03-26T10:39:22;11.50;99.90
1205;DHT22;592;48.764;9.174;2023-03-26T10:41:59;11.60;99.90
1205;DHT22;592;48.764;9.174;2023-03-26T10:44:57;11.80;99.90
1205;DHT22;592;48.764;9.174;2023-03-26T10:47:39;11.90;99.90
1205;DHT22;592;48.764;9.174;2023-03-26T10:50:25;12.20;99.90
1205;DHT22;592;48.764;9.174;2023-03-26T10:52:58;12.00;99.90
1205;DHT22;592;48.764;9.174;2023-03-26T10:55:31;12.50;99.90
1205;DHT22;592;48.764;9.174;2023-03-26T10:58:07;12.00;99.90
1205;DHT22;592;48.764;9.174;2023-03-26T11:00:40;12.50;99.90
1205;DHT22;592;48.764;9.174;2023-03-26T11:03:25;12.40;99.90
1205;DHT22;592;48.764;9.174;2023-03-26T11:06:01;12.40;99.90
1205;DHT22;592;48.764;9.174;2023-03-26T11:08:37;12.70;99.90
1205;DHT22;592;48.764;9.174;2023-03-26T11:11:12;12.60;99.90
1205;DHT22;592;48.764;9.174;2023-03-26T11:13:48;12.40;99.90
1205;DHT22;592;48.764;9.174;2023-03-26T11:16:24;11.70;99.90
1205;DHT22;592;48.764;9.174;2023-03-26T11:18:58;11.80;99.90
1205;DHT22;592;48.764;9.174;2023-03-26T11:21:32;11.70;99.90
1205;DHT22;592;48.764;9.174;2023-03-26T11:24:16;11.70;99.90
1205;DHT22;592;48.764;9.174;2023-03-26T11:26:50;11.90;99.90
1205;DHT22;592;48.764;9.174;2023-03-26T11:29:33;12.30;99.90
1205;DHT22;592;48.764;9.174;2023-03-26T11:32:12;11.90;99.90
1205;DHT22;592;48.764;9.174;2023-03-26T11:35:16;11.90;99.90
1205;DHT22;592;48.764;9.174;2023-03-26T11:37:46;12.30;99.90
1205;DHT22;592;48.764;9.174;2023-03-26T11:40:20;12.60;99.90
1205;DHT22;592;48.764;9.174;2023-03-26T11:42:59;12.20;99.90
1205;DHT22;592;48.764;9.174;2023-03-26T11:45:31;12.90;99.90
1205;DHT22;592;48.764;9.174;2023-03-26T11:48:04;12.80;99.90
1205;DHT22;592;48.764;9.174;2023-03-26T11:50:37;12.60;99.90
1205;DHT22;592;48.764;9.174;2023-03-26T11:53:11;12.60;99.90
1205;DHT22;592;48.764;9.174;2023-03-26T11:55:41;12.70;99.90
1205;DHT22;592;48.764;9.174;2023-03-26T11:58:22;13.00;99.90
1205;DHT22;592;48.764;9.174;2023-03-26T12:00:53;13.00;99.90
1205;DHT22;592;48.764;9.174;2023-03-26T12:03:20;13.20;99.90
1205;DHT22;592;48.764;9.174;2023-03-26T12:05:48;13.20;99.90
1205;DHT22;592;48.764;9.174;2023-03-26T12:08:20;13.60;99.90
1205;DHT22;592;48.764;9.174;2023-03-26T12:10:50;13.50;99.90
1205;DHT22;592;48.764;9.174;2023-03-26T12:13:28;13.50;99.40
1205;DHT22;592;48.764;9.174;2023-03-26T12:16:06;13.50;98.90
1205;DHT22;592;48.764;9.174;2023-03-26T12:18:34;13.70;99.90
1205;DHT22;592;48.764;9.174;2023-03-26T12:21:05;13.80;99.70
1205;DHT22;592;48.764;9.174;2023-03-26T12:23:52;13.40;99.50
1205;DHT22;592;48.764;9.174;2023-03-26T12:26:29;13.40;98.80
1205;DHT22;592;48.764;9.174;2023-03-26T12:29:05;13.70;99.40
1205;DHT22;592;48.764;9.174;2023-03-26T12:31:45;13.50;98.60
1205;DHT22;592;48.764;9.174;2023-03-26T12:34:16;13.70;97.90
1205;DHT22;592;48.764;9.174;2023-03-26T12:36:48;13.60;97.20
1205;DHT22;592;48.764;9.174;2023-03-26T12:39:28;13.40;97.40
1205;DHT22;592;48.764;9.174;2023-03-26T12:41:57;13.60;97.50
1205;DHT22;592;48.764;9.174;2023-03-26T12:44:27;13.30;97.30
1205;DHT22;592;48.764;9.174;2023-03-26T12:47:09;13.50;97.90
1205;DHT22;592;48.764;9.174;2023-03-26T12:49:38;13.40;97.90
1205;DHT22;592;48.764;9.174;2023-03-26T12:52:24;13.60;98.30
1205;DHT22;592;48.764;9.174;2023-03-26T12:54:57;13.70;97.10
1205;DHT22;592;48.764;9.174;2023-03-26T12:57:31;13.50;97.40
1205;DHT22;592;48.764;9.174;2023-03-26T13:00:13;13.60;99.90
1205;DHT22;592;48.764;9.174;2023-03-26T13:03:11;13.70;98.10
1205;DHT22;592;48.764;9.174;2023-03-26T13:05:56;13.70;96.80
1205;DHT22;592;48.764;9.174;2023-03-26T13:08:40;13.90;97.40
1205;DHT22;592;48.764;9.174;2023-03-26T13:11:17;14.20;97.80
1205;DHT22;592;48.764;9.174;2023-03-26T13:14:01;14.40;97.60
1205;DHT22;592;48.764;9.174;2023-03-26T13:16:35;14.30;96.20
1205;DHT22;592;48.764;9.174;2023-03-26T13:19:17;14.20;96.70
1205;DHT22;592;48.764;9.174;2023-03-26T13:22:00;14.50;96.40
1205;DHT22;592;48.764;9.174;2023-03-26T13:24:37;14.50;96.40
1205;DHT22;592;48.764;9.174;2023-03-26T13:27:18;14.50;95.80
1205;DHT22;592;48.764;9.174;2023-03-26T13:29:51;14.30;96.10
1205;DHT22;592;48.764;9.174;2023-03-26T13:32:27;14.20;96.30
1205;DHT22;592;48.764;9.174;2023-03-26T13:35:09;14.30;96.70
1205;DHT22;592;48.764;9.174;2023-03-26T13:37:43;13.80;96.30
1205;DHT22;592;48.764;9.174;2023-03-26T13:40:21;13.90;97.10
1205;DHT22;592;48.764;9.174;2023-03-26T13:43:02;13.70;96.20
1205;DHT22;592;48.764;9.174;2023-03-26T13:45:41;13.50;97.00
1205;DHT22;592;48.764;9.174;2023-03-26T13:48:15;13.80;96.90
1205;DHT22;592;48.764;9.174;2023-03-26T13:50:50;13.50;96.70
1205;DHT22;592;48.764;9.174;2023-03-26T13:53:22;13.70;97.90
1205;DHT22;592;48.764;9.174;2023-03-26T13:55:53;13.70;97.20
1205;DHT22;592;48.764;9.174;2023-03-26T13:58:25;13.50;95.30
1205;DHT22;592;48.764;9.174;2023-03-26T14:00:57;13.60;95.30
1205;DHT22;592;48.764;9.174;2023-03-26T14:03:32;13.50;94.60
1205;DHT22;592;48.764;9.174;2023-03-26T14:06:05;13.50;95.20
1205;DHT22;592;48.764;9.174;2023-03-26T14:08:36;13.70;95.40
1205;DHT22;592;48.764;9.174;2023-03-26T14:11:09;13.60;95.00
1205;DHT22;592;48.764;9.174;2023-03-26T14:13:40;13.50;94.20
1205;DHT22;592;48.764;9.174;2023-03-26T14:16:14;13.60;94.80
1205;DHT22;592;48.764;9.174;2023-03-26T14:18:46;13.50;95.00
1205;DHT22;592;48.764;9.174;2023-03-26T14:21:52;13.30;94.60
1205;DHT22;592;48.764;9.174;2023-03-26T14:24:43;13.10;95.10
1205;DHT22;592;48.764;9.174;2023-03-26T14:27:43;13.20;95.90
1205;DHT22;592;48.764;9.174;2023-03-26T14:33:21;12.10;99.90
1205;DHT22;592;48.764;9.174;2023-03-26T14:35:58;11.40;99.90
1205;DHT22;592;48.764;9.174;2023-03-26T14:38:57;11.00;99.90
1205;DHT22;592;48.764;9.174;2023-03-26T14:41:28;10.30;99.90
1205;DHT22;592;48.764;9.174;2023-03-26T14:44:23;10.10;99.90
1205;DHT22;592;48.764;9.174;2023-03-26T14:47:01;9.70;99.90
1205;DHT22;592;48.764;9.174;2023-03-26T14:52:46;9.70;99.90
1205;DHT22;592;48.764;9.174;2023-03-26T14:55:22;9.90;99.90
1205;DHT22;592;48.764;9.174;2023-03-26T14:58:11;10.00;99.90
1205;DHT22;592;48.764;9.174;2023-03-26T15:01:18;10.10;99.90
1205;DHT22;592;48.764;9.174;2023-03-26T15:04:26;10.00;99.90
1205;DHT22;592;48.764;9.174;2023-03-26T15:07:35;10.20;99.90
1205;DHT22;592;48.764;9.174;2023-03-26T15:13:25;10.20;99.90
1205;DHT22;592;48.764;9.174;2023-03-26T15:19:13;10.00;99.90
1205;DHT22;592;48.764;9.174;2023-03-26T15:22:24;9.90;99.90
1205;DHT22;592;48.764;9.174;2023-03-26T15:25:32;9.60;99.90
1205;DHT22;592;48.764;9.174;2023-03-26T15:28:31;9.70;99.90
1205;DHT22;592;48.764;9.174;2023-03-26T15:31:32;9.50;99.90
1205;DHT22;592;48.764;9.174;2023-03-26T15:34:17;9.20;99.90
1205;DHT22;592;48.764;9.174;2023-03-26T15:40:26;8.80;99.90
1205;DHT22;592;48.764;9.174;2023-03-26T15:43:05;8.60;99.90
1205;DHT22;592;48.764;9.174;2023-03-26T15:45:36;8.60;99.90
1205;DHT22;592;48.764;9.174;2023-03-26T15:48:30;8.60;99.90
1205;DHT22;592;48.764;9.174;2023-03-26T15:51:23;8.70;99.90
1205;DHT22;592;48.764;9.174;2023-03-26T15:54:01;8.40;99.90
1205;DHT22;592;48.764;9.174;2023-03-26T15:56:48;8.20;99.90
1205;DHT22;592;48.764;9.174;2023-03-26T15:59:32;8.30;99.90
1205;DHT22;592;48.764;9.174;2023-03-26T16:02:15;8.40;99.90
1205;DHT22;592;48.764;9.174;2023-03-26T16:04:50;8.20;99.90
1205;DHT22;592;48.764;9.174;2023-03-26T16:10:32;8.20;99.90
1205;DHT22;592;48.764;9.174;2023-03-26T16:13:32;8.30;99.90
1205;DHT22;592;48.764;9.174;2023-03-26T16:16:20;8.40;99.90
1205;DHT22;592;48.764;9.174;2023-03-26T16:18:53;8.50;99.90
1205;DHT22;592;48.764;9.174;2023-03-26T16:21:41;8.50;99.90
1205;DHT22;592;48.764;9.174;2023-03-26T16:24:19;8.30;99.90
1205;DHT22;592;48.764;9.174;2023-03-26T16:26:58;8.30;99.90
1205;DHT22;592;48.764;9.174;2023-03-26T16:29:27;8.20;99.90
1205;DHT22;592;48.764;9.174;2023-03-26T16:32:03;8.30;99.90
1205;DHT22;592;48.764;9.174;2023-03-26T16:34:39;8.10;99.90
1205;DHT22;592;48.764;9.174;2023-03-26T16:37:40;8.00;99.90
1205;DHT22;592;48.764;9.174;2023-03-26T16:40:31;8.00;99.90
1205;DHT22;592;48.764;9.174;2023-03-26T16:43:10;7.90;99.90
1205;DHT22;592;48.764;9.174;2023-03-26T16:45:43;7.90;99.90
1205;DHT22;592;48.764;9.174;2023-03-26T16:48:22;7.90;99.90
1205;DHT22;592;48.764;9.174;2023-03-26T16:50:55;7.90;99.90
1205;DHT22;592;48.764;9.174;2023-03-26T16:53:27;8.00;99.90
1205;DHT22;592;48.764;9.174;2023-03-26T16:56:05;7.80;99.90
1205;DHT22;592;48.764;9.174;2023-03-26T16:58:42;7.70;99.90
1205;DHT22;592;48.764;9.174;2023-03-26T17:01:15;7.80;99.90
1205;DHT22;592;48.764;9.174;2023-03-26T17:03:50;7.70;99.90
1205;DHT22;592;48.764;9.174;2023-03-26T17:06:25;7.80;99.90
1205;DHT22;592;48.764;9.174;2023-03-26T17:09:01;7.70;99.90
1205;DHT22;592;48.764;9.174;2023-03-26T17:11:36;7.80;99.90
1205;DHT22;592;48.764;9.174;2023-03-26T17:14:12;7.60;99.90
1205;DHT22;592;48.764;9.174;2023-03-26T17:16:46;7.60;99.90
1205;DHT22;592;48.764;9.174;2023-03-26T17:19:24;7.60;99.90
1205;DHT22;592;48.764;9.174;2023-03-26T17:21:56;7.60;99.90
1205;DHT22;592;48.764;9.174;2023-03-26T17:24:33;7.60;99.90
1205;DHT22;592;48.764;9.174;2023-03-26T17:27:09;7.70;99.90
1205;DHT22;592;48.764;9.174;2023-03-26T17:30:00;7.50;99.90
1205;DHT22;592;48.764;9.174;2023-03-26T17:32:50;7.60;99.90
1205;DHT22;592;48.764;9.174;2023-03-26T17:35:38;7.50;99.90
1205;DHT22;592;48.764;9.174;2023-03-26T17:40:52;7.60;99.90
1205;DHT22;592;48.764;9.174;2023-03-26T17:43:38;7.60;99.90
1205;DHT22;592;48.764;9.174;2023-03-26T17:46:18;7.60;99.90
1205;DHT22;592;48.764;9.174;2023-03-26T17:48:51;7.60;99.90
1205;DHT22;592;48.764;9.174;2023-03-26T17:51:33;7.60;99.90
1205;DHT22;592;48.764;9.174;2023-03-26T17:54:06;7.60;99.90
1205;DHT22;592;48.764;9.174;2023-03-26T17:56:34;7.60;99.90
1205;DHT22;592;48.764;9.174;2023-03-26T17:59:03;7.60;99.90
1205;DHT22;592;48.764;9.174;2023-03-26T18:01:35;7.60;99.90
1205;DHT22;592;48.764;9.174;2023-03-26T18:04:04;7.60;99.90
1205;DHT22;592;48.764;9.174;2023-03-26T18:06:46;7.60;99.90